< < Back
Terminal Aerodrome Forecast


Current Version              Previous Versions:   1  2  3  4  5  6  7  8  9  

Terminal Aerodrome Forecast

866
FTUS44 KMRX 291132
TAFCHA
TAF
KCHA 291132Z 2912/3012 00000KT 4SM BR FEW007 BKN035
      TEMPO 2912/2913 2SM BR SCT007
     FM291400 VRB03KT P6SM BKN040
     FM291600 16005KT P6SM VCSH BKN040 OVC120
     FM291900 16007KT P6SM VCTS BKN035CB OVC100
     FM300000 VRB03KT P6SM SCT040 BKN120
     FM300600 00000KT P6SM BKN250=



Latest METAR

140
SAUS80 KWBC 291800 RRC
MTRCHA
METAR KCHA 291753Z 18009KT 10SM SCT037 BKN060 BKN085 28/19 A3018 RMK AO2
SLP214 T02780189 10278 20206 58013


USA.gov is the U.S. government's official web portal to all federal, state and local government web resources and services.